createdAt,value
2023-03-28T00:00:30.238Z,90.14
2023-03-28T00:01:31.376Z,89.20
2023-03-28T00:02:30.199Z,89.95
2023-03-28T00:03:30.172Z,89.86
2023-03-28T00:04:30.049Z,89.48
2023-03-28T00:05:31.457Z,89.86
2023-03-28T00:06:29.968Z,90.14
2023-03-28T00:07:29.987Z,90.33
2023-03-28T00:08:29.867Z,90.71
2023-03-28T00:09:29.997Z,90.90
2023-03-28T00:10:29.767Z,90.71
2023-03-28T00:11:29.803Z,90.14
2023-03-28T00:12:30.889Z,88.53
2023-03-28T00:13:29.832Z,88.15
2023-03-28T00:14:29.576Z,88.72
2023-03-28T00:15:29.636Z,88.72
2023-03-28T00:16:29.491Z,88.91
2023-03-28T00:17:29.657Z,88.29
2023-03-28T00:18:29.382Z,88.10
2023-03-28T00:19:30.482Z,88.81
2023-03-28T00:20:29.296Z,88.77
2023-03-28T00:21:29.482Z,89.76
2023-03-28T00:22:29.194Z,89.95
2023-03-28T00:23:29.284Z,90.05
2023-03-28T00:24:29.104Z,90.62
2023-03-28T00:25:30.418Z,90.76
2023-03-28T00:26:29.003Z,91.09
2023-03-28T00:27:29.212Z,91.75
2023-03-28T00:28:28.987Z,91.90
2023-03-28T00:29:29.025Z,91.19
2023-03-28T00:30:28.813Z,91.75
2023-03-28T00:31:28.908Z,91.33
2023-03-28T00:32:28.914Z,91.42
2023-03-28T00:33:28.852Z,91.61
2023-03-28T00:34:28.623Z,91.42
2023-03-28T00:35:28.662Z,91.05
2023-03-28T00:36:28.527Z,91.71
2023-03-28T00:37:29.712Z,92.09
2023-03-28T00:38:28.607Z,92.28
2023-03-28T00:39:28.485Z,92.85
2023-03-28T00:40:28.486Z,92.38
2023-03-28T00:41:28.286Z,92.66
2023-03-28T00:42:28.291Z,93.23
2023-03-28T00:43:28.195Z,92.94
2023-03-28T00:44:28.313Z,92.47
2023-03-28T00:45:28.096Z,92.47
2023-03-28T00:46:28.063Z,92.28
2023-03-28T00:47:28.308Z,92.57
2023-03-28T00:48:27.956Z,92.18
2023-03-28T00:49:28.141Z,92.38
2023-03-28T00:50:27.898Z,92.57
2023-03-28T00:51:27.972Z,92.47
2023-03-28T00:52:27.757Z,92.38
2023-03-28T00:53:27.966Z,92.18
2023-03-28T00:54:27.668Z,92.85
2023-03-28T00:55:27.775Z,92.94
2023-03-28T00:56:27.613Z,93.13
2023-03-28T00:57:27.590Z,92.76
2023-03-28T00:58:27.473Z,93.41
2023-03-28T00:59:27.705Z,93.80
2023-03-28T01:00:27.382Z,94.08
2023-03-28T01:01:27.559Z,94.08
2023-03-28T01:02:27.389Z,93.70
2023-03-28T01:03:27.423Z,93.99
2023-03-28T01:04:27.221Z,93.99
2023-03-28T01:05:27.236Z,93.99
2023-03-28T01:06:27.084Z,94.37
2023-03-28T01:07:27.249Z,94.18
2023-03-28T01:08:26.990Z,93.89
2023-03-28T01:09:27.058Z,93.75
2023-03-28T01:10:26.926Z,93.89
2023-03-28T01:11:26.844Z,93.61
2023-03-28T01:12:26.870Z,93.56
2023-03-28T01:13:26.937Z,94.32
2023-03-28T01:14:26.890Z,93.94
2023-03-28T01:15:26.740Z,94.60
2023-03-28T01:16:26.736Z,94.51
2023-03-28T01:17:26.576Z,95.26
2023-03-28T01:18:26.710Z,95.84
2023-03-28T01:19:26.497Z,95.93
2023-03-28T01:20:26.662Z,95.84
2023-03-28T01:21:26.479Z,95.84
2023-03-28T01:22:26.447Z,96.22
2023-03-28T01:23:26.436Z,96.31
2023-03-28T01:24:26.506Z,96.12
2023-03-28T01:25:26.248Z,96.41
2023-03-28T01:26:26.878Z,96.50
2023-03-28T01:27:26.079Z,96.78
2023-03-28T01:28:26.179Z,96.69
2023-03-28T01:29:25.974Z,96.78
2023-03-28T01:30:26.186Z,97.07
2023-03-28T01:31:25.996Z,97.54
2023-03-28T01:32:26.022Z,97.54
2023-03-28T01:33:25.784Z,97.16
2023-03-28T01:34:25.803Z,97.35
2023-03-28T01:35:26.891Z,97.45
2023-03-28T01:36:34.146Z,97.16
2023-03-28T01:37:25.802Z,97.26
2023-03-28T01:38:27.786Z,97.64
2023-03-28T01:39:25.506Z,97.35
2023-03-28T01:40:26.565Z,97.35
2023-03-28T01:41:25.560Z,97.35
2023-03-28T01:42:25.364Z,97.64
2023-03-28T01:43:26.581Z,97.64
2023-03-28T01:44:25.254Z,97.26
2023-03-28T01:45:25.292Z,97.35
2023-03-28T01:46:25.286Z,97.73
2023-03-28T01:47:25.137Z,97.45
2023-03-28T01:48:25.060Z,97.16
2023-03-28T01:49:25.319Z,96.97
2023-03-28T01:50:24.961Z,96.97
2023-03-28T01:51:25.124Z,97.16
2023-03-28T01:52:24.870Z,96.88
2023-03-28T01:53:24.926Z,96.97
2023-03-28T01:54:24.779Z,97.16
2023-03-28T01:55:25.031Z,96.97
2023-03-28T01:56:24.696Z,96.88
2023-03-28T01:57:25.969Z,96.78
2023-03-28T01:58:24.577Z,96.78
2023-03-28T01:59:24.650Z,96.69
2023-03-28T02:00:24.502Z,97.07
2023-03-28T02:01:24.937Z,96.88
2023-03-28T02:02:24.469Z,97.35
2023-03-28T02:03:24.611Z,97.26
2023-03-28T02:04:24.287Z,97.83
2023-03-28T02:05:24.392Z,97.83
2023-03-28T02:06:24.199Z,97.45
2023-03-28T02:07:24.421Z,97.83
2023-03-28T02:08:24.097Z,98.30
2023-03-28T02:09:24.820Z,97.92
2023-03-28T02:10:24.018Z,98.49
2023-03-28T02:11:24.051Z,97.83
2023-03-28T02:12:23.910Z,97.73
2023-03-28T02:13:24.043Z,97.92
2023-03-28T02:14:23.824Z,97.92
2023-03-28T02:15:23.850Z,97.83
2023-03-28T02:16:23.923Z,97.54
2023-03-28T02:17:23.912Z,97.35
2023-03-28T02:18:24.691Z,97.45
2023-03-28T02:19:23.569Z,97.54
2023-03-28T02:20:23.686Z,97.16
2023-03-28T02:21:23.484Z,97.16
2023-03-28T02:22:23.703Z,96.50
2023-03-28T02:23:23.377Z,96.69
2023-03-28T02:24:23.333Z,96.69
2023-03-28T02:25:24.544Z,96.97
2023-03-28T02:26:23.244Z,96.78
2023-03-28T02:27:23.437Z,97.54
2023-03-28T02:28:23.252Z,97.64
2023-03-28T02:29:23.245Z,97.16
2023-03-28T02:30:23.254Z,96.69
2023-03-28T02:31:23.013Z,96.88
2023-03-28T02:32:23.091Z,96.88
2023-03-28T02:33:23.125Z,96.78
2023-03-28T02:34:23.082Z,97.07
2023-03-28T02:35:22.830Z,97.54
2023-03-28T02:36:22.757Z,97.45
2023-03-28T02:37:22.728Z,97.16
2023-03-28T02:38:22.902Z,97.45
2023-03-28T02:39:22.610Z,97.35
2023-03-28T02:40:22.723Z,97.35
2023-03-28T02:41:22.506Z,97.45
2023-03-28T02:42:22.469Z,97.35
2023-03-28T02:43:22.581Z,97.30
2023-03-28T02:44:22.535Z,97.68
2023-03-28T02:45:22.316Z,97.21
2023-03-28T02:46:22.582Z,97.30
2023-03-28T02:47:22.234Z,97.45
2023-03-28T02:48:23.384Z,97.11
2023-03-28T02:49:22.148Z,96.97
2023-03-28T02:50:22.283Z,96.92
2023-03-28T02:51:22.038Z,97.11
2023-03-28T02:52:22.085Z,96.92
2023-03-28T02:53:21.932Z,97.11
2023-03-28T02:54:22.100Z,96.92
2023-03-28T02:55:21.948Z,96.92
2023-03-28T02:56:22.025Z,96.64
2023-03-28T02:57:21.748Z,96.55
2023-03-28T02:58:21.824Z,96.55
2023-03-28T02:59:21.658Z,96.83
2023-03-28T03:00:21.877Z,96.73
2023-03-28T03:01:21.601Z,96.55
2023-03-28T03:02:21.810Z,96.64
2023-03-28T03:03:21.477Z,96.83
2023-03-28T03:04:21.664Z,96.83
2023-03-28T03:05:21.519Z,97.40
2023-03-28T03:06:21.514Z,97.40
2023-03-28T03:07:21.262Z,96.92
2023-03-28T03:08:21.491Z,96.73
2023-03-28T03:09:21.164Z,96.83
2023-03-28T03:10:21.296Z,97.40
2023-03-28T03:11:21.081Z,97.40
2023-03-28T03:12:22.130Z,97.49
2023-03-28T03:13:21.131Z,97.59
2023-03-28T03:14:20.927Z,97.68
2023-03-28T03:15:21.129Z,97.11
2023-03-28T03:16:20.852Z,97.30
2023-03-28T03:17:20.938Z,97.87
2023-03-28T03:18:20.727Z,97.59
2023-03-28T03:19:20.686Z,97.59
2023-03-28T03:20:20.860Z,97.59
2023-03-28T03:21:20.580Z,98.06
2023-03-28T03:22:21.345Z,97.59
2023-03-28T03:23:20.481Z,98.06
2023-03-28T03:24:20.703Z,97.97
2023-03-28T03:25:20.484Z,98.82
2023-03-28T03:26:20.364Z,98.54
2023-03-28T03:27:20.709Z,98.72
2023-03-28T03:28:20.240Z,99.01
2023-03-28T03:29:20.313Z,98.82
2023-03-28T03:30:20.162Z,99.39
2023-03-28T03:31:20.236Z,99.39
2023-03-28T03:32:20.229Z,99.58
2023-03-28T03:33:20.049Z,99.39
2023-03-28T03:34:20.086Z,99.48
2023-03-28T03:35:19.941Z,99.48
2023-03-28T03:36:20.051Z,99.77
2023-03-28T03:37:19.803Z,99.39
2023-03-28T03:38:23.342Z,99.52
2023-03-28T03:39:19.706Z,99.58
2023-03-28T03:40:19.772Z,99.58
2023-03-28T03:41:19.607Z,99.33
2023-03-28T03:42:19.789Z,99.33
2023-03-28T03:43:19.516Z,99.71
2023-03-28T03:44:19.480Z,99.71
2023-03-28T03:45:19.508Z,99.24
2023-03-28T03:46:19.403Z,99.62
2023-03-28T03:47:19.417Z,99.52
2023-03-28T03:48:19.268Z,98.77
2023-03-28T03:49:19.430Z,99.52
2023-03-28T03:50:19.206Z,99.05
2023-03-28T03:51:19.244Z,99.15
2023-03-28T03:52:19.074Z,98.96
2023-03-28T03:53:19.268Z,98.77
2023-03-28T03:54:18.976Z,99.52
2023-03-28T03:55:19.065Z,99.99
2023-03-28T03:56:19.119Z,99.90
2023-03-28T03:57:19.118Z,99.99
2023-03-28T03:58:18.798Z,99.99
2023-03-28T03:59:18.910Z,99.99
2023-03-28T04:00:18.689Z,99.99
2023-03-28T04:01:18.902Z,99.99
2023-03-28T04:02:18.616Z,99.99
2023-03-28T04:03:25.243Z,99.99
2023-03-28T04:04:18.529Z,99.99
2023-03-28T04:05:18.730Z,99.99
2023-03-28T04:06:18.400Z,99.99
2023-03-28T04:07:19.558Z,99.99
2023-03-28T04:08:18.548Z,99.99
2023-03-28T04:09:18.238Z,99.99
2023-03-28T04:10:18.367Z,99.99
2023-03-28T04:11:18.241Z,99.99
2023-03-28T04:12:18.369Z,99.99
2023-03-28T04:13:18.047Z,99.99
2023-03-28T04:14:18.226Z,99.99
2023-03-28T04:15:18.189Z,99.99
2023-03-28T04:16:17.933Z,99.99
2023-03-28T04:17:17.995Z,99.99
2023-03-28T04:18:17.891Z,99.99
2023-03-28T04:19:18.054Z,99.99
2023-03-28T04:20:18.023Z,99.99
2023-03-28T04:21:17.871Z,99.99
2023-03-28T04:22:17.828Z,99.99
2023-03-28T04:23:17.558Z,99.99
2023-03-28T04:24:17.733Z,99.99
2023-03-28T04:25:17.511Z,99.99
2023-03-28T04:26:17.416Z,99.99
2023-03-28T04:27:17.365Z,99.99
2023-03-28T04:28:17.560Z,99.99
2023-03-28T04:29:17.263Z,99.99
2023-03-28T04:30:18.424Z,99.99
2023-03-28T04:31:17.206Z,99.99
2023-03-28T04:32:17.388Z,99.99
2023-03-28T04:33:17.074Z,99.99
2023-03-28T04:34:17.221Z,99.99
2023-03-28T04:35:17.011Z,99.99
2023-03-28T04:36:17.221Z,99.99
2023-03-28T04:37:16.883Z,99.99
2023-03-28T04:38:21.322Z,99.99
2023-03-28T04:39:16.774Z,99.99
2023-03-28T04:40:18.071Z,99.99
2023-03-28T04:41:16.718Z,99.99
2023-03-28T04:42:16.993Z,99.99
2023-03-28T04:43:16.590Z,99.99
2023-03-28T04:44:17.689Z,99.99
2023-03-28T04:45:18.022Z,99.99
2023-03-28T04:46:16.601Z,99.99
2023-03-28T04:47:16.634Z,99.99
2023-03-28T04:48:16.486Z,99.99
2023-03-28T04:49:16.332Z,99.99
2023-03-28T04:50:16.424Z,99.99
2023-03-28T04:51:16.192Z,99.99
2023-03-28T04:52:16.415Z,99.99
2023-03-28T04:53:16.113Z,99.99
2023-03-28T04:54:16.328Z,99.99
2023-03-28T04:55:16.516Z,99.99
2023-03-28T04:56:16.138Z,99.99
2023-03-28T04:57:15.951Z,99.99
2023-03-28T04:58:16.151Z,99.99
2023-03-28T04:59:15.801Z,99.99
2023-03-28T05:00:15.975Z,99.99
2023-03-28T05:01:15.847Z,99.99
2023-03-28T05:02:15.809Z,99.99
2023-03-28T05:03:15.672Z,99.99
2023-03-28T05:04:16.810Z,99.99
2023-03-28T05:05:15.509Z,99.99
2023-03-28T05:06:15.702Z,99.99
2023-03-28T05:07:15.433Z,99.99
2023-03-28T05:08:15.508Z,99.99
2023-03-28T05:09:15.509Z,99.99
2023-03-28T05:10:15.264Z,99.99
2023-03-28T05:11:15.324Z,99.99
2023-03-28T05:12:15.489Z,99.99
2023-03-28T05:13:15.238Z,99.99
2023-03-28T05:14:15.060Z,99.99
2023-03-28T05:15:22.848Z,99.99
2023-03-28T05:16:14.995Z,99.99
2023-03-28T05:17:16.086Z,99.99
2023-03-28T05:18:14.874Z,99.99
2023-03-28T05:19:15.071Z,99.99
2023-03-28T05:20:14.768Z,99.99
2023-03-28T05:21:15.043Z,99.99
2023-03-28T05:22:14.682Z,99.99
2023-03-28T05:23:14.801Z,99.99
2023-03-28T05:24:14.572Z,99.99
2023-03-28T05:25:14.812Z,99.99
2023-03-28T05:26:14.462Z,99.99
2023-03-28T05:27:14.830Z,99.99
2023-03-28T05:28:14.374Z,99.99
2023-03-28T05:29:15.549Z,99.99
2023-03-28T05:30:14.348Z,99.99
2023-03-28T05:31:14.340Z,99.99
2023-03-28T05:32:14.174Z,99.99
2023-03-28T05:33:15.620Z,99.99
2023-03-28T05:34:14.077Z,99.99
2023-03-28T05:35:14.171Z,99.99
2023-03-28T05:36:14.030Z,99.99
2023-03-28T05:37:14.182Z,99.99
2023-03-28T05:38:13.890Z,99.99
2023-03-28T05:39:15.033Z,99.99
2023-03-28T05:40:13.802Z,99.99
2023-03-28T05:41:14.020Z,99.99
2023-03-28T05:42:13.860Z,99.99
2023-03-28T05:43:13.917Z,99.99
2023-03-28T05:44:13.629Z,99.99
2023-03-28T05:45:14.753Z,99.99
2023-03-28T05:46:14.782Z,99.99
2023-03-28T05:47:13.442Z,99.99
2023-03-28T05:48:13.556Z,99.99
2023-03-28T05:49:13.533Z,99.99
2023-03-28T05:50:13.457Z,99.99
2023-03-28T05:51:13.244Z,99.99
2023-03-28T05:52:13.222Z,99.99
2023-03-28T05:53:13.279Z,99.99
2023-03-28T05:54:13.103Z,99.99
2023-03-28T05:55:13.195Z,99.99
2023-03-28T05:56:13.246Z,99.99
2023-03-28T05:57:13.232Z,99.99
2023-03-28T05:58:12.896Z,99.99
2023-03-28T05:59:13.013Z,99.99
2023-03-28T06:03:47.279Z,99.99
2023-03-28T06:04:46.853Z,99.99
2023-03-28T06:05:46.953Z,99.99
2023-03-28T06:06:46.647Z,99.99
2023-03-28T06:07:46.762Z,99.99
2023-03-28T06:08:46.542Z,99.99
2023-03-28T06:09:46.777Z,99.99
2023-03-28T06:10:46.834Z,99.99
2023-03-28T06:11:46.394Z,99.99
2023-03-28T06:12:46.601Z,99.99
2023-03-28T06:13:46.287Z,99.99
2023-03-28T06:14:46.405Z,99.99
2023-03-28T06:15:46.203Z,99.99
2023-03-28T06:16:46.364Z,99.99
2023-03-28T06:17:46.207Z,99.99
2023-03-28T06:18:46.131Z,99.99
2023-03-28T06:19:46.032Z,99.99
2023-03-28T06:20:46.134Z,99.99
2023-03-28T06:21:45.895Z,99.99
2023-03-28T06:22:45.943Z,99.99
2023-03-28T06:23:45.808Z,99.99
2023-03-28T06:24:45.930Z,99.99
2023-03-28T06:25:45.699Z,99.99
2023-03-28T06:26:45.870Z,99.99
2023-03-28T06:27:45.604Z,99.99
2023-03-28T06:28:45.696Z,99.99
2023-03-28T06:29:45.703Z,99.99
2023-03-28T06:30:45.597Z,99.99
2023-03-28T06:31:45.443Z,99.99
2023-03-28T06:32:46.522Z,99.99
2023-03-28T06:33:45.310Z,99.99
2023-03-28T06:34:45.427Z,99.99
2023-03-28T06:35:45.242Z,99.99
2023-03-28T06:36:45.236Z,99.99
2023-03-28T06:37:45.120Z,99.99
2023-03-28T06:38:46.545Z,99.99
2023-03-28T06:39:45.016Z,99.99
2023-03-28T06:40:45.055Z,99.99
2023-03-28T06:41:45.063Z,99.99
2023-03-28T06:42:44.875Z,99.99
2023-03-28T06:43:46.930Z,99.99
2023-03-28T06:44:44.796Z,99.99
2023-03-28T06:45:44.905Z,99.99
2023-03-28T06:46:44.975Z,99.71
2023-03-28T06:47:44.656Z,99.99
2023-03-28T06:48:44.717Z,99.99
2023-03-28T06:49:44.530Z,99.43
2023-03-28T06:50:44.556Z,99.52
2023-03-28T06:51:44.441Z,99.62
2023-03-28T06:52:44.535Z,99.52
2023-03-28T06:53:44.555Z,99.71
2023-03-28T06:54:46.002Z,99.43
2023-03-28T06:55:45.371Z,99.99
2023-03-28T06:56:44.289Z,99.52
2023-03-28T06:57:44.368Z,99.33
2023-03-28T06:58:44.092Z,99.62
2023-03-28T06:59:44.039Z,99.58
2023-03-28T07:00:45.108Z,99.58
2023-03-28T07:01:44.001Z,99.99
2023-03-28T07:02:45.240Z,99.99
2023-03-28T07:03:43.980Z,99.86
2023-03-28T07:04:44.929Z,99.99
2023-03-28T07:05:43.760Z,99.99
2023-03-28T07:06:43.920Z,99.99
2023-03-28T07:07:43.801Z,99.86
2023-03-28T07:08:43.728Z,99.86
2023-03-28T07:09:43.567Z,99.99
2023-03-28T07:10:43.540Z,99.99
2023-03-28T07:11:43.461Z,99.99
2023-03-28T07:12:43.417Z,99.99
2023-03-28T07:13:44.593Z,99.99
2023-03-28T07:14:43.314Z,99.99
2023-03-28T07:15:44.606Z,99.99
2023-03-28T07:16:43.280Z,99.99
2023-03-28T07:17:43.349Z,99.58
2023-03-28T07:18:43.131Z,99.58
2023-03-28T07:20:04.189Z,99.48
2023-03-28T07:20:45.587Z,99.67
2023-03-28T07:21:44.140Z,99.44
2023-03-28T07:22:42.959Z,99.63
2023-03-28T07:23:44.048Z,99.44
2023-03-28T07:24:42.880Z,99.53
2023-03-28T07:25:42.935Z,99.53
2023-03-28T07:26:42.738Z,99.44
2023-03-28T07:27:42.782Z,99.72
2023-03-28T07:28:42.812Z,99.72
2023-03-28T07:29:42.768Z,98.87
2023-03-28T07:30:42.543Z,99.06
2023-03-28T07:31:42.623Z,98.49
2023-03-28T07:32:54.355Z,98.02
2023-03-28T07:33:42.431Z,98.21
2023-03-28T07:34:42.593Z,98.11
2023-03-28T07:35:42.349Z,98.30
2023-03-28T07:36:42.505Z,98.39
2023-03-28T07:37:42.212Z,98.11
2023-03-28T07:38:43.343Z,97.64
2023-03-28T07:39:42.109Z,96.78
2023-03-28T07:40:42.127Z,96.73
2023-03-28T07:41:42.059Z,96.83
2023-03-28T07:42:42.134Z,97.12
2023-03-28T07:43:41.927Z,96.45
2023-03-28T07:44:42.438Z,96.45
2023-03-28T07:45:41.869Z,95.88
2023-03-28T07:46:41.858Z,95.31
2023-03-28T07:47:42.038Z,94.74
2023-03-28T07:48:41.801Z,94.46
2023-03-28T07:49:41.640Z,94.46
2023-03-28T07:50:41.693Z,94.65
2023-03-28T07:51:41.713Z,94.74
2023-03-28T07:52:43.550Z,94.08
2023-03-28T07:53:41.478Z,93.99
2023-03-28T07:54:41.533Z,92.99
2023-03-28T07:55:54.558Z,92.99
2023-03-28T07:56:41.497Z,92.42
2023-03-28T07:57:41.375Z,92.33
2023-03-28T07:58:41.331Z,91.94
2023-03-28T07:59:41.168Z,91.47
2023-03-28T08:00:41.351Z,91.66
2023-03-28T08:01:41.067Z,93.18
2023-03-28T08:02:43.390Z,93.37
2023-03-28T08:03:41.045Z,93.46
2023-03-28T08:04:41.075Z,93.84
2023-03-28T08:05:40.918Z,93.75
2023-03-28T08:06:41.102Z,93.94
2023-03-28T08:07:41.044Z,94.03
2023-03-28T08:08:40.792Z,93.94
2023-03-28T08:09:40.740Z,93.37
2023-03-28T08:10:40.713Z,93.13
2023-03-28T08:11:40.681Z,91.80
2023-03-28T08:12:40.626Z,91.42
2023-03-28T08:13:40.498Z,91.52
2023-03-28T08:14:40.634Z,91.80
2023-03-28T08:15:40.616Z,91.04
2023-03-28T08:16:40.549Z,89.33
2023-03-28T08:17:40.336Z,89.72
2023-03-28T08:18:40.395Z,88.86
2023-03-28T08:19:40.360Z,89.62
2023-03-28T08:20:40.190Z,89.14
2023-03-28T08:21:41.512Z,88.39
2023-03-28T08:22:40.095Z,88.48
2023-03-28T08:23:40.085Z,88.24
2023-03-28T08:24:39.976Z,86.91
2023-03-28T08:25:39.925Z,84.91
2023-03-28T08:26:40.106Z,84.06
2023-03-28T08:27:39.830Z,82.26
2023-03-28T08:28:39.915Z,81.87
2023-03-28T08:29:39.786Z,79.60
2023-03-28T08:30:39.932Z,78.17
2023-03-28T08:31:39.674Z,76.37
2023-03-28T08:32:39.893Z,70.70
2023-03-28T08:33:39.545Z,68.19
2023-03-28T08:34:39.654Z,67.72
2023-03-28T08:35:40.465Z,68.33
2023-03-28T08:36:39.790Z,68.33
2023-03-28T08:37:39.365Z,68.99
2023-03-28T08:38:39.477Z,68.42
2023-03-28T08:39:39.267Z,67.76
2023-03-28T08:40:39.346Z,68.52
2023-03-28T08:41:39.177Z,67.66
2023-03-28T08:42:39.542Z,67.41
2023-03-28T08:43:39.100Z,67.41
2023-03-28T08:44:39.067Z,68.55
2023-03-28T08:45:39.123Z,68.36
2023-03-28T08:46:38.972Z,68.59
2023-03-28T08:47:39.153Z,67.63
2023-03-28T08:48:38.895Z,66.87
2023-03-28T08:49:40.072Z,65.25
2023-03-28T08:50:38.757Z,65.48
2023-03-28T08:51:39.887Z,63.57
2023-03-28T08:52:38.695Z,61.58
2023-03-28T08:53:38.773Z,62.91
2023-03-28T08:54:38.572Z,63.23
2023-03-28T08:55:40.634Z,62.49
2023-03-28T08:56:38.518Z,60.78
2023-03-28T08:57:39.877Z,59.86
2023-03-28T08:58:39.676Z,59.12
2023-03-28T08:59:38.609Z,58.01
2023-03-28T09:00:38.313Z,57.43
2023-03-28T09:01:40.512Z,55.84
2023-03-28T09:02:38.441Z,54.70
2023-03-28T09:03:38.532Z,54.32
2023-03-28T09:04:38.164Z,54.06
2023-03-28T09:05:38.240Z,54.18
2023-03-28T09:06:38.063Z,53.16
2023-03-28T09:07:39.076Z,52.01
2023-03-28T09:08:37.979Z,49.84
2023-03-28T09:09:38.073Z,49.57
2023-03-28T09:10:38.011Z,48.33
2023-03-28T09:11:37.988Z,47.30
2023-03-28T09:12:37.815Z,45.89
2023-03-28T09:13:40.122Z,43.39
2023-03-28T09:14:37.746Z,42.55
2023-03-28T09:15:37.813Z,40.92
2023-03-28T09:16:37.760Z,40.66
2023-03-28T09:17:37.874Z,39.77
2023-03-28T09:18:37.582Z,39.50
2023-03-28T09:19:47.944Z,39.72
2023-03-28T09:20:37.647Z,38.85
2023-03-28T09:21:37.477Z,38.49
2023-03-28T09:22:39.500Z,37.74
2023-03-28T09:23:37.394Z,38.72
2023-03-28T09:24:37.567Z,39.70
2023-03-28T09:25:37.319Z,37.59
2023-03-28T09:26:37.430Z,36.43
2023-03-28T09:27:37.414Z,37.24
2023-03-28T09:28:37.204Z,36.37
2023-03-28T09:29:37.394Z,35.14
2023-03-28T09:30:37.135Z,34.66
2023-03-28T09:31:37.238Z,34.66
2023-03-28T09:32:38.312Z,34.66
2023-03-28T09:33:37.019Z,34.00
2023-03-28T09:34:37.435Z,33.91
2023-03-28T09:35:36.979Z,33.03
2023-03-28T09:36:47.848Z,32.95
2023-03-28T09:37:36.885Z,32.09
2023-03-28T09:38:36.853Z,31.81
2023-03-28T09:39:38.904Z,31.25
2023-03-28T09:40:36.766Z,31.35
2023-03-28T09:41:37.074Z,30.88
2023-03-28T09:42:36.729Z,28.67
2023-03-28T09:43:36.889Z,28.29
2023-03-28T09:44:51.022Z,27.81
2023-03-28T09:45:36.652Z,28.11
2023-03-28T09:46:36.804Z,28.22
2023-03-28T09:47:36.585Z,27.45
2023-03-28T09:48:36.722Z,25.89
2023-03-28T09:49:36.459Z,26.07
2023-03-28T09:50:36.949Z,26.17
2023-03-28T09:51:37.460Z,26.08
2023-03-28T09:52:36.353Z,27.53
2023-03-28T09:53:37.469Z,25.98
2023-03-28T09:54:36.274Z,26.84
2023-03-28T09:55:36.360Z,26.55
2023-03-28T09:56:36.310Z,27.04
2023-03-28T09:57:36.168Z,27.55
2023-03-28T09:58:36.382Z,27.08
2023-03-28T09:59:36.098Z,26.50
2023-03-28T10:00:37.426Z,25.34
2023-03-28T10:01:36.133Z,25.73
2023-03-28T10:02:36.126Z,24.97
2023-03-28T10:03:35.960Z,24.49
2023-03-28T10:04:38.265Z,24.50
2023-03-28T10:05:35.944Z,23.44
2023-03-28T10:06:36.156Z,23.16
2023-03-28T10:07:35.846Z,22.68
2023-03-28T10:08:58.883Z,23.07
2023-03-28T10:09:36.004Z,22.40
2023-03-28T10:10:36.986Z,21.62
2023-03-28T10:11:35.750Z,20.74
2023-03-28T10:12:35.877Z,21.11
2023-03-28T10:13:35.618Z,21.78
2023-03-28T10:14:36.720Z,22.66
2023-03-28T10:15:35.559Z,22.95
2023-03-28T10:16:37.002Z,22.85
2023-03-28T10:17:37.101Z,22.17
2023-03-28T10:18:35.449Z,22.25
2023-03-28T10:19:35.612Z,22.34
2023-03-28T10:20:35.391Z,23.29
2023-03-28T10:21:37.494Z,23.28
2023-03-28T10:22:35.339Z,24.63
2023-03-28T10:23:35.551Z,23.96
2023-03-28T10:24:35.255Z,23.47
2023-03-28T10:25:35.457Z,23.19
2023-03-28T10:26:35.174Z,23.30
2023-03-28T10:27:35.264Z,23.41
2023-03-28T10:28:36.345Z,23.50
2023-03-28T10:29:35.072Z,23.12
2023-03-28T10:30:36.413Z,21.67
2023-03-28T10:31:35.021Z,22.34
2023-03-28T10:32:35.319Z,22.06
2023-03-28T10:33:34.936Z,23.24
2023-03-28T10:34:34.945Z,21.59
2023-03-28T10:35:34.920Z,21.79
2023-03-28T10:36:34.924Z,22.47
2023-03-28T10:37:34.830Z,22.38
2023-03-28T10:38:34.936Z,22.38
2023-03-28T10:39:34.726Z,21.51
2023-03-28T10:40:34.736Z,21.20
2023-03-28T10:41:34.667Z,20.99
2023-03-28T10:42:34.960Z,21.09
2023-03-28T10:43:34.596Z,20.59
2023-03-28T10:44:34.677Z,20.87
2023-03-28T10:45:34.524Z,21.17
2023-03-28T10:46:34.717Z,20.99
2023-03-28T10:47:34.492Z,21.19
2023-03-28T10:48:34.495Z,21.68
2023-03-28T10:49:34.396Z,21.00
2023-03-28T10:50:36.936Z,21.11
2023-03-28T10:51:34.327Z,20.90
2023-03-28T10:52:35.548Z,21.10
2023-03-28T10:53:34.264Z,21.48
2023-03-28T10:54:35.369Z,21.17
2023-03-28T10:55:34.179Z,22.25
2023-03-28T10:56:35.372Z,23.32
2023-03-28T10:57:34.105Z,22.84
2023-03-28T10:58:34.465Z,22.96
2023-03-28T10:59:34.279Z,23.44
2023-03-28T11:00:34.025Z,20.94
2023-03-28T11:01:34.150Z,20.64
2023-03-28T11:02:34.056Z,21.22
2023-03-28T11:03:36.232Z,22.00
2023-03-28T11:04:33.896Z,22.00
2023-03-28T11:05:33.840Z,20.07
2023-03-28T11:06:33.916Z,19.88
2023-03-28T11:07:33.796Z,20.00
2023-03-28T11:08:35.165Z,18.33
2023-03-28T11:09:33.734Z,17.83
2023-03-28T11:10:33.942Z,18.59
2023-03-28T11:11:33.642Z,19.55
2023-03-28T11:12:40.946Z,19.84
2023-03-28T11:13:33.810Z,20.04
2023-03-28T11:14:34.790Z,20.43
2023-03-28T11:15:33.513Z,20.34
2023-03-28T11:16:54.670Z,20.54
2023-03-28T11:17:33.525Z,20.64
2023-03-28T11:18:33.414Z,20.25
2023-03-28T11:19:33.519Z,20.34
2023-03-28T11:20:33.558Z,20.44
2023-03-28T11:21:33.409Z,19.75
2023-03-28T11:22:33.286Z,20.24
2023-03-28T11:23:34.115Z,20.64
2023-03-28T11:24:33.199Z,20.82
2023-03-28T11:25:33.436Z,21.00
2023-03-28T11:26:33.164Z,20.70
2023-03-28T11:27:34.469Z,20.51
2023-03-28T11:28:33.066Z,20.23
2023-03-28T11:29:42.692Z,20.51
2023-03-28T11:30:33.018Z,20.52
2023-03-28T11:31:34.148Z,20.24
2023-03-28T11:32:33.187Z,21.12
2023-03-28T11:33:33.081Z,19.38
2023-03-28T11:34:32.862Z,19.78
2023-03-28T11:35:33.165Z,19.98
2023-03-28T11:36:32.807Z,20.17
2023-03-28T11:37:32.912Z,19.98
2023-03-28T11:38:32.745Z,20.75
2023-03-28T11:39:36.114Z,19.49
2023-03-28T11:40:32.662Z,20.27
2023-03-28T11:41:32.837Z,20.18
2023-03-28T11:42:32.598Z,19.30
2023-03-28T11:43:34.697Z,19.30
2023-03-28T11:44:32.548Z,19.48
2023-03-28T11:45:49.596Z,19.29
2023-03-28T11:46:32.901Z,19.29
2023-03-28T11:47:32.538Z,20.06
2023-03-28T11:48:32.398Z,19.98
2023-03-28T11:49:32.513Z,19.68
2023-03-28T11:50:32.332Z,20.27
2023-03-28T11:51:32.502Z,20.65
2023-03-28T11:52:33.318Z,20.74
2023-03-28T11:53:32.537Z,20.55
2023-03-28T11:54:32.325Z,20.34
2023-03-28T11:55:32.193Z,20.62
2023-03-28T11:56:32.354Z,21.11
2023-03-28T11:57:32.400Z,21.12
2023-03-28T11:58:33.173Z,19.96
2023-03-28T11:59:32.037Z,19.49
2023-03-28T12:00:34.335Z,20.57
2023-03-28T12:01:31.976Z,19.51
2023-03-28T12:02:32.332Z,19.42
2023-03-28T12:03:32.000Z,19.04
2023-03-28T12:04:32.162Z,18.75
2023-03-28T12:05:31.852Z,18.66
2023-03-28T12:06:32.305Z,17.79
2023-03-28T12:07:31.774Z,17.41
2023-03-28T12:08:31.915Z,16.64
2023-03-28T12:09:31.709Z,16.64
2023-03-28T12:10:31.864Z,17.33
2023-03-28T12:11:31.667Z,17.03
2023-03-28T12:12:34.094Z,16.27
2023-03-28T12:13:31.606Z,16.56
2023-03-28T12:14:31.849Z,16.75
2023-03-28T12:15:31.518Z,15.88
2023-03-28T12:16:31.670Z,16.16
2023-03-28T12:17:31.504Z,16.05
2023-03-28T12:18:32.699Z,16.16
2023-03-28T12:19:31.397Z,16.54
2023-03-28T12:20:31.710Z,16.25
2023-03-28T12:21:31.336Z,16.14
2023-03-28T12:22:31.502Z,16.33
2023-03-28T12:23:31.277Z,16.81
2023-03-28T12:24:31.528Z,16.91
2023-03-28T12:25:31.245Z,16.80
2023-03-28T12:26:31.217Z,17.29
2023-03-28T12:27:31.159Z,17.87
2023-03-28T12:28:31.342Z,17.76
2023-03-28T12:29:31.089Z,17.57
2023-03-28T12:30:31.889Z,18.33
2023-03-28T12:31:31.088Z,18.63
2023-03-28T12:32:31.184Z,18.73
2023-03-28T12:33:30.951Z,17.76
2023-03-28T12:34:32.193Z,17.68
2023-03-28T12:35:30.908Z,17.57
2023-03-28T12:36:31.107Z,17.66
2023-03-28T12:37:30.829Z,17.66
2023-03-28T12:38:30.805Z,18.33
2023-03-28T12:39:31.242Z,18.05
2023-03-28T12:40:30.724Z,18.05
2023-03-28T12:41:31.960Z,18.73
2023-03-28T12:42:30.666Z,18.65
2023-03-28T12:43:32.799Z,18.37
2023-03-28T12:44:30.602Z,17.69
2023-03-28T12:45:30.860Z,16.44
2023-03-28T12:46:30.561Z,15.86
2023-03-28T12:47:32.750Z,15.77
2023-03-28T12:48:30.482Z,16.25
2023-03-28T12:49:31.904Z,16.25
2023-03-28T12:50:52.512Z,16.35
2023-03-28T12:51:30.377Z,15.95
2023-03-28T12:52:30.492Z,16.13
2023-03-28T12:53:30.311Z,16.22
2023-03-28T12:54:32.580Z,16.78
2023-03-28T12:55:30.270Z,17.27